createdAt,value
2022-08-26T00:01:56.979Z,10.02
2022-08-26T00:04:25.861Z,11.20
2022-08-26T00:06:54.249Z,10.73
2022-08-26T00:09:21.495Z,10.90
2022-08-26T00:11:48.876Z,11.10
2022-08-26T00:14:16.790Z,11.05
2022-08-26T00:16:47.908Z,10.52
2022-08-26T00:19:20.850Z,10.70
2022-08-26T00:21:49.673Z,10.35
2022-08-26T00:24:19.451Z,10.77
2022-08-26T00:26:47.061Z,11.88
2022-08-26T00:29:15.003Z,10.77
2022-08-26T00:31:42.326Z,10.68
2022-08-26T00:34:11.334Z,10.60
2022-08-26T00:36:40.742Z,10.52
2022-08-26T00:39:08.260Z,10.48
2022-08-26T00:41:38.879Z,10.93
2022-08-26T00:44:06.996Z,10.93
2022-08-26T00:46:38.609Z,11.50
2022-08-26T00:49:22.170Z,10.35
2022-08-26T00:51:58.815Z,11.32
2022-08-26T00:54:33.484Z,11.32
2022-08-26T00:57:08.597Z,10.80
2022-08-26T00:59:45.758Z,12.75
2022-08-26T01:02:20.858Z,11.65
2022-08-26T01:04:55.669Z,10.15
2022-08-26T01:07:26.311Z,10.45
2022-08-26T01:09:56.166Z,12.52
2022-08-26T01:12:28.008Z,11.35
2022-08-26T01:14:55.389Z,10.63
2022-08-26T01:17:23.512Z,11.15
2022-08-26T01:19:57.421Z,9.82
2022-08-26T01:22:50.544Z,11.35
2022-08-26T01:25:21.311Z,9.00
2022-08-26T01:27:49.220Z,10.57
2022-08-26T01:32:45.898Z,9.15
2022-08-26T01:35:13.074Z,9.63
2022-08-26T01:37:41.149Z,11.48
2022-08-26T01:40:12.684Z,10.27
2022-08-26T01:42:41.422Z,11.55
2022-08-26T01:45:18.640Z,10.37
2022-08-26T01:47:49.007Z,13.63
2022-08-26T01:50:28.067Z,10.55
2022-08-26T01:52:59.578Z,11.05
2022-08-26T01:55:32.837Z,11.02
2022-08-26T01:58:05.567Z,10.80
2022-08-26T02:00:35.050Z,13.98
2022-08-26T02:05:53.642Z,10.73
2022-08-26T02:08:44.635Z,11.45
2022-08-26T02:11:12.914Z,11.02
2022-08-26T02:13:45.766Z,11.05
2022-08-26T02:16:16.288Z,10.25
2022-08-26T02:18:46.854Z,12.52
2022-08-26T02:21:14.698Z,10.82
2022-08-26T02:23:41.938Z,10.60
2022-08-26T02:26:17.985Z,10.65
2022-08-26T02:28:57.547Z,12.23
2022-08-26T02:31:25.222Z,10.68
2022-08-26T02:33:52.264Z,10.55
2022-08-26T02:36:28.682Z,11.98
2022-08-26T02:38:56.054Z,11.00
2022-08-26T02:41:23.694Z,12.48
2022-08-26T02:43:51.790Z,12.50
2022-08-26T02:46:21.554Z,11.20
2022-08-26T02:48:55.336Z,11.48
2022-08-26T02:51:22.395Z,11.73
2022-08-26T02:53:50.179Z,11.40
2022-08-26T02:56:18.105Z,11.52
2022-08-26T02:58:45.372Z,11.80
2022-08-26T03:01:32.496Z,11.25
2022-08-26T03:04:00.944Z,11.38
2022-08-26T03:06:28.462Z,11.38
2022-08-26T03:08:56.014Z,10.60
2022-08-26T03:11:23.739Z,11.75
2022-08-26T03:13:51.915Z,10.67
2022-08-26T03:16:19.235Z,11.60
2022-08-26T03:18:51.961Z,12.38
2022-08-26T03:21:21.166Z,12.95
2022-08-26T03:23:48.323Z,11.85
2022-08-26T03:26:16.339Z,11.68
2022-08-26T03:29:02.206Z,10.68
2022-08-26T03:31:29.773Z,11.65
2022-08-26T03:33:59.918Z,11.63
2022-08-26T03:36:27.610Z,13.63
2022-08-26T03:38:54.568Z,12.68
2022-08-26T03:41:21.963Z,11.10
2022-08-26T03:43:51.003Z,12.43
2022-08-26T03:46:18.810Z,11.68
2022-08-26T03:48:45.934Z,11.65
2022-08-26T03:51:18.379Z,14.73
2022-08-26T03:53:48.326Z,11.25
2022-08-26T03:56:15.615Z,12.05
2022-08-26T03:58:44.528Z,12.07
2022-08-26T04:01:16.295Z,11.20
2022-08-26T04:04:00.212Z,11.90
2022-08-26T04:06:42.591Z,11.27
2022-08-26T04:09:16.159Z,11.85
2022-08-26T04:11:44.992Z,10.63
2022-08-26T04:14:20.071Z,13.95
2022-08-26T04:16:47.847Z,11.23
2022-08-26T04:19:16.764Z,11.55
2022-08-26T04:21:46.066Z,12.63
2022-08-26T04:24:15.712Z,12.75
2022-08-26T04:29:19.949Z,10.88
2022-08-26T04:31:50.237Z,11.57
2022-08-26T04:34:24.844Z,10.98
2022-08-26T04:36:56.217Z,11.57
2022-08-26T04:39:23.480Z,11.13
2022-08-26T04:41:55.193Z,11.35
2022-08-26T04:44:25.681Z,10.80
2022-08-26T04:46:52.850Z,11.88
2022-08-26T04:49:20.944Z,11.32
2022-08-26T04:51:49.063Z,11.60
2022-08-26T04:54:16.453Z,11.68
2022-08-26T04:56:46.061Z,11.23
2022-08-26T04:59:18.019Z,12.82
2022-08-26T05:01:51.473Z,11.85
2022-08-26T05:04:20.117Z,11.55
2022-08-26T05:06:48.573Z,11.50
2022-08-26T05:09:16.118Z,10.53
2022-08-26T05:11:43.146Z,10.60
2022-08-26T05:14:10.228Z,11.13
2022-08-26T05:16:40.436Z,11.38
2022-08-26T05:19:08.591Z,12.77
2022-08-26T05:21:36.703Z,11.88
2022-08-26T05:24:04.807Z,10.93
2022-08-26T05:26:32.310Z,11.57
2022-08-26T05:28:59.541Z,12.77
2022-08-26T05:31:28.744Z,11.27
2022-08-26T05:33:57.781Z,11.25
2022-08-26T05:36:27.711Z,11.73
2022-08-26T05:38:56.448Z,12.02
2022-08-26T05:41:36.582Z,11.43
2022-08-26T05:44:09.565Z,12.52
2022-08-26T05:46:37.975Z,11.13
2022-08-26T05:49:12.864Z,12.77
2022-08-26T05:51:47.670Z,11.88
2022-08-26T05:54:22.121Z,12.05
2022-08-26T05:56:50.932Z,13.75
2022-08-26T05:59:21.247Z,12.55
2022-08-26T06:01:53.112Z,11.10
2022-08-26T06:04:20.416Z,10.20
2022-08-26T06:06:47.787Z,12.90
2022-08-26T06:09:14.999Z,11.60
2022-08-26T06:11:45.466Z,11.45
2022-08-26T06:14:12.570Z,12.05
2022-08-26T06:16:43.886Z,11.52
2022-08-26T06:19:13.435Z,12.98
2022-08-26T06:21:42.606Z,12.43
2022-08-26T06:24:31.534Z,10.48
2022-08-26T06:27:01.772Z,11.02
2022-08-26T06:29:31.832Z,11.45
2022-08-26T06:31:59.357Z,10.35
2022-08-26T06:34:30.346Z,10.85
2022-08-26T06:37:01.185Z,10.70
2022-08-26T06:39:30.792Z,9.73
2022-08-26T06:42:03.211Z,10.35
2022-08-26T06:44:34.660Z,9.68
2022-08-26T06:47:01.602Z,9.75
2022-08-26T06:49:28.686Z,9.75
2022-08-26T06:52:00.008Z,9.73
2022-08-26T06:54:29.290Z,10.50
2022-08-26T06:56:57.608Z,8.95
2022-08-26T06:59:25.504Z,10.87
2022-08-26T07:01:53.345Z,9.77
2022-08-26T07:04:22.420Z,9.13
2022-08-26T07:06:52.775Z,9.30
2022-08-26T07:09:26.362Z,9.10
2022-08-26T07:11:55.610Z,9.25
2022-08-26T07:16:50.887Z,8.18
2022-08-26T07:19:29.846Z,9.05
2022-08-26T07:22:04.538Z,7.75
2022-08-26T07:24:36.114Z,8.63
2022-08-26T07:27:06.295Z,11.10
2022-08-26T07:29:34.645Z,9.55
2022-08-26T07:32:03.120Z,9.50
2022-08-26T07:34:32.317Z,8.88
2022-08-26T07:37:00.919Z,9.10
2022-08-26T07:39:28.452Z,10.00
2022-08-26T07:42:08.038Z,8.43
2022-08-26T07:44:37.721Z,8.43
2022-08-26T07:49:55.049Z,8.02
2022-08-26T07:52:26.659Z,9.43
2022-08-26T07:54:54.745Z,8.90
2022-08-26T07:57:21.678Z,9.70
2022-08-26T07:59:52.014Z,9.85
2022-08-26T08:02:21.550Z,8.95
2022-08-26T08:04:48.569Z,8.73
2022-08-26T08:07:15.708Z,8.68
2022-08-26T08:09:42.788Z,8.60
2022-08-26T08:12:14.233Z,8.70
2022-08-26T08:14:45.330Z,8.13
2022-08-26T08:17:15.866Z,9.50
2022-08-26T08:19:43.235Z,8.85
2022-08-26T08:22:17.545Z,7.97
2022-08-26T08:24:45.143Z,8.50
2022-08-26T08:27:12.123Z,7.78
2022-08-26T08:29:41.385Z,7.97
2022-08-26T08:32:11.553Z,7.72
2022-08-26T08:37:29.410Z,10.20
2022-08-26T08:39:56.416Z,7.78
2022-08-26T08:42:45.750Z,8.05
2022-08-26T08:45:20.295Z,9.93
2022-08-26T08:47:54.597Z,9.23
2022-08-26T08:50:34.220Z,8.32
2022-08-26T08:53:11.235Z,8.10
2022-08-26T08:56:23.782Z,7.95
2022-08-26T08:58:56.900Z,11.20
2022-08-26T09:01:30.580Z,9.00
2022-08-26T09:04:28.367Z,8.95
2022-08-26T09:06:58.870Z,9.35
2022-08-26T09:09:36.544Z,8.98
2022-08-26T09:12:05.174Z,8.43
2022-08-26T09:14:32.177Z,9.05
2022-08-26T09:17:08.237Z,8.32
2022-08-26T09:19:52.484Z,9.07
2022-08-26T09:22:30.999Z,8.45
2022-08-26T09:24:58.135Z,8.98
2022-08-26T09:27:50.563Z,9.07
2022-08-26T09:30:34.548Z,10.10
2022-08-26T09:33:01.606Z,8.15
2022-08-26T09:35:35.901Z,9.85
2022-08-26T09:38:20.455Z,10.40
2022-08-26T09:41:25.284Z,9.90
2022-08-26T09:44:16.709Z,9.52
2022-08-26T09:46:55.691Z,9.25
2022-08-26T09:49:27.065Z,10.93
2022-08-26T09:52:18.774Z,9.45
2022-08-26T09:55:17.899Z,9.70
2022-08-26T09:57:54.179Z,11.05
2022-08-26T10:00:38.563Z,9.38
2022-08-26T10:03:10.867Z,9.38
2022-08-26T10:05:45.874Z,10.95
2022-08-26T10:08:29.892Z,10.25
2022-08-26T10:11:01.534Z,9.77
2022-08-26T10:13:31.415Z,10.13
2022-08-26T10:16:01.181Z,10.45
2022-08-26T10:18:36.958Z,10.07
2022-08-26T10:21:17.971Z,10.88
2022-08-26T10:23:49.643Z,11.75
2022-08-26T10:26:27.918Z,11.27
2022-08-26T10:29:06.403Z,10.30
2022-08-26T10:31:43.579Z,10.77
2022-08-26T10:34:13.902Z,11.00
2022-08-26T10:37:14.753Z,9.98
2022-08-26T10:40:07.642Z,11.23
2022-08-26T10:42:46.682Z,11.20
2022-08-26T10:45:19.906Z,11.38
2022-08-26T10:48:00.443Z,13.45
2022-08-26T10:50:37.412Z,11.45
2022-08-26T10:53:16.742Z,11.85
2022-08-26T10:55:50.336Z,12.05
2022-08-26T10:58:38.830Z,11.45
2022-08-26T11:01:33.426Z,9.75
2022-08-26T11:04:13.032Z,10.40
2022-08-26T11:06:40.545Z,10.93
2022-08-26T11:11:42.393Z,10.55
2022-08-26T11:14:10.567Z,9.75
2022-08-26T11:16:45.945Z,9.82
2022-08-26T11:19:56.710Z,9.10
2022-08-26T11:22:32.060Z,10.82
2022-08-26T11:24:59.083Z,9.77
2022-08-26T11:27:26.341Z,10.40
2022-08-26T11:30:06.889Z,10.68
2022-08-26T11:32:34.739Z,10.07
2022-08-26T11:35:07.327Z,10.73
2022-08-26T11:37:41.216Z,10.98
2022-08-26T11:40:16.574Z,11.27
2022-08-26T11:42:56.023Z,12.77
2022-08-26T11:45:26.651Z,10.00
2022-08-26T11:47:54.907Z,9.73
2022-08-26T11:50:26.536Z,10.23
2022-08-26T11:52:55.061Z,12.50
2022-08-26T11:55:24.113Z,10.73
2022-08-26T11:57:55.822Z,11.35
2022-08-26T12:00:31.401Z,10.75
2022-08-26T12:03:05.541Z,11.57
2022-08-26T12:05:38.527Z,11.07
2022-08-26T12:08:13.831Z,11.15
2022-08-26T12:10:40.907Z,10.50
2022-08-26T12:13:08.765Z,10.88
2022-08-26T12:15:36.296Z,10.77
2022-08-26T12:18:29.348Z,10.98
2022-08-26T12:21:00.495Z,9.50
2022-08-26T12:23:36.866Z,10.75
2022-08-26T12:26:26.798Z,8.70
2022-08-26T12:29:12.583Z,12.52
2022-08-26T12:31:48.248Z,10.45
2022-08-26T12:34:17.823Z,10.07
2022-08-26T12:36:48.977Z,10.88
2022-08-26T12:39:30.020Z,10.13
2022-08-26T12:42:01.805Z,10.73
2022-08-26T12:44:42.520Z,11.43
2022-08-26T12:47:42.567Z,11.45
2022-08-26T12:50:21.738Z,9.93
2022-08-26T12:53:00.102Z,11.10
2022-08-26T12:55:33.036Z,10.13
2022-08-26T12:58:18.498Z,10.48
2022-08-26T13:00:47.493Z,9.65
2022-08-26T13:03:39.082Z,9.02
2022-08-26T13:06:22.343Z,9.93
2022-08-26T13:08:54.393Z,8.73
2022-08-26T13:11:54.716Z,11.05
2022-08-26T13:14:24.656Z,8.68
2022-08-26T13:16:53.148Z,10.32
2022-08-26T13:19:25.603Z,8.65
2022-08-26T13:21:57.938Z,8.88
2022-08-26T13:24:38.720Z,10.77
2022-08-26T13:27:09.061Z,9.55
2022-08-26T13:29:36.207Z,8.65
2022-08-26T13:32:04.891Z,9.93
2022-08-26T13:34:32.673Z,8.30
2022-08-26T13:36:59.850Z,8.93
2022-08-26T13:39:27.161Z,9.48
2022-08-26T13:41:54.964Z,12.30
2022-08-26T13:44:22.211Z,9.30
2022-08-26T13:46:49.250Z,9.60
2022-08-26T13:49:16.298Z,10.57
2022-08-26T13:51:44.450Z,9.77
2022-08-26T13:54:11.512Z,11.73
2022-08-26T13:56:38.531Z,10.02
2022-08-26T13:59:06.465Z,11.63
2022-08-26T14:01:35.086Z,12.43
2022-08-26T14:04:03.260Z,11.55
2022-08-26T14:06:30.742Z,11.68
2022-08-26T14:08:58.227Z,12.02
2022-08-26T14:11:25.369Z,11.65
2022-08-26T14:13:52.492Z,10.68
2022-08-26T14:16:25.797Z,10.82
2022-08-26T14:18:53.599Z,10.68
2022-08-26T14:21:21.105Z,11.00
2022-08-26T14:23:48.516Z,11.82
2022-08-26T14:26:28.088Z,10.63
2022-08-26T14:28:59.979Z,11.13
2022-08-26T14:31:29.543Z,11.07
2022-08-26T14:34:04.030Z,11.82
2022-08-26T14:36:32.597Z,11.93
2022-08-26T14:41:33.839Z,11.32
2022-08-26T14:46:33.573Z,11.10
2022-08-26T14:49:03.572Z,11.35
2022-08-26T14:51:32.544Z,11.07
2022-08-26T14:54:14.872Z,11.98
2022-08-26T14:56:54.121Z,11.27
2022-08-26T14:59:31.053Z,11.02
2022-08-26T15:01:58.891Z,11.75
2022-08-26T15:04:26.287Z,12.47
2022-08-26T15:06:55.865Z,10.75
2022-08-26T15:09:23.866Z,11.60
2022-08-26T15:11:51.293Z,11.23
2022-08-26T15:14:19.490Z,11.43
2022-08-26T15:16:52.517Z,12.07
2022-08-26T15:19:20.479Z,13.65
2022-08-26T15:21:47.905Z,12.20
2022-08-26T15:24:18.338Z,11.52
2022-08-26T15:26:48.143Z,11.48
2022-08-26T15:29:15.536Z,11.70
2022-08-26T15:31:43.227Z,12.95
2022-08-26T15:34:16.348Z,11.98
2022-08-26T15:36:46.414Z,12.20
2022-08-26T15:39:15.360Z,11.80
2022-08-26T15:41:42.787Z,13.48
2022-08-26T15:44:10.316Z,16.60
2022-08-26T15:46:38.524Z,17.20
2022-08-26T15:49:06.490Z,14.98
2022-08-26T15:51:46.065Z,13.60
2022-08-26T15:54:14.484Z,12.15
2022-08-26T15:56:41.488Z,11.98
2022-08-26T15:59:11.725Z,11.68
2022-08-26T16:01:39.935Z,11.73
2022-08-26T16:04:07.443Z,11.07
2022-08-26T16:06:37.586Z,11.23
2022-08-26T16:09:05.986Z,12.65
2022-08-26T16:11:34.177Z,11.52
2022-08-26T16:14:01.162Z,13.32
2022-08-26T16:16:28.386Z,14.85
2022-08-26T16:18:55.558Z,15.40
2022-08-26T16:21:28.692Z,17.33
2022-08-26T16:23:56.908Z,18.60
2022-08-26T16:26:27.781Z,21.77
2022-08-26T16:28:55.036Z,21.52
2022-08-26T16:31:22.449Z,19.23
2022-08-26T16:33:49.686Z,18.67
2022-08-26T16:36:17.195Z,15.63
2022-08-26T16:38:56.572Z,15.35
2022-08-26T16:41:28.694Z,13.52
2022-08-26T16:43:56.833Z,11.88
2022-08-26T16:46:26.074Z,12.90
2022-08-26T16:48:58.038Z,10.88
2022-08-26T16:51:27.599Z,11.80
2022-08-26T16:53:56.370Z,10.40
2022-08-26T16:59:04.394Z,9.83
2022-08-26T17:01:31.653Z,9.63
2022-08-26T17:03:58.709Z,10.65
2022-08-26T17:06:25.790Z,9.32
2022-08-26T17:08:53.254Z,12.27
2022-08-26T17:11:20.282Z,9.18
2022-08-26T17:13:51.853Z,9.35
2022-08-26T17:16:21.283Z,8.60
2022-08-26T17:18:50.516Z,9.07
2022-08-26T17:21:18.553Z,8.32
2022-08-26T17:23:46.523Z,8.77
2022-08-26T17:26:13.786Z,7.90
2022-08-26T17:28:41.482Z,8.70
2022-08-26T17:31:10.572Z,7.70
2022-08-26T17:33:38.224Z,8.63
2022-08-26T17:36:06.995Z,7.75
2022-08-26T17:38:34.558Z,7.78
2022-08-26T17:41:01.792Z,11.60
2022-08-26T17:43:29.398Z,10.80
2022-08-26T17:46:06.865Z,7.57
2022-08-26T17:48:36.127Z,7.77
2022-08-26T17:51:12.327Z,8.43
2022-08-26T17:53:40.196Z,7.97
2022-08-26T17:56:12.994Z,7.80
2022-08-26T17:58:40.831Z,7.50
2022-08-26T18:01:15.639Z,7.75
2022-08-26T18:03:43.098Z,8.20
2022-08-26T18:06:11.926Z,7.90
2022-08-26T18:08:40.308Z,8.18
2022-08-26T18:11:09.862Z,10.05
2022-08-26T18:13:37.616Z,7.93
2022-08-26T18:16:13.311Z,8.52
2022-08-26T18:18:40.495Z,7.65
2022-08-26T18:21:16.651Z,8.45
2022-08-26T18:23:45.083Z,8.35
2022-08-26T18:26:31.345Z,9.38
2022-08-26T18:28:58.606Z,8.98
2022-08-26T18:31:25.965Z,8.73
2022-08-26T18:33:53.472Z,9.10
2022-08-26T18:36:29.678Z,9.38
2022-08-26T18:38:57.741Z,7.72
2022-08-26T18:41:27.896Z,8.10
2022-08-26T18:43:55.428Z,11.63
2022-08-26T18:46:25.333Z,8.05
2022-08-26T18:48:54.598Z,9.20
2022-08-26T18:51:29.765Z,8.80
2022-08-26T18:53:57.485Z,8.18
2022-08-26T18:56:24.490Z,8.85
2022-08-26T18:58:51.682Z,9.57
2022-08-26T19:01:19.029Z,11.07
2022-08-26T19:03:46.681Z,7.30
2022-08-26T19:06:19.142Z,7.88
2022-08-26T19:08:49.929Z,8.32
2022-08-26T19:11:31.311Z,8.13
2022-08-26T19:14:04.370Z,9.48
2022-08-26T19:16:31.597Z,8.32
2022-08-26T19:18:59.026Z,7.50
2022-08-26T19:21:26.379Z,11.27
2022-08-26T19:23:57.295Z,7.90
2022-08-26T19:26:25.147Z,8.13
2022-08-26T19:28:53.002Z,7.75
2022-08-26T19:31:20.530Z,7.25
2022-08-26T19:33:47.525Z,9.73
2022-08-26T19:36:25.592Z,7.55
2022-08-26T19:38:53.791Z,10.88
2022-08-26T19:41:36.979Z,7.25
2022-08-26T19:44:13.005Z,6.57
2022-08-26T19:46:40.321Z,7.25
2022-08-26T19:49:07.336Z,7.63
2022-08-26T19:51:35.702Z,8.23
2022-08-26T19:54:03.198Z,6.83
2022-08-26T19:56:30.260Z,7.32
2022-08-26T19:58:57.488Z,7.07
2022-08-26T20:01:25.284Z,7.05
2022-08-26T20:03:52.685Z,7.10
2022-08-26T20:06:20.364Z,7.78
2022-08-26T20:08:47.987Z,7.70
2022-08-26T20:11:19.118Z,9.02
2022-08-26T20:13:47.677Z,7.43
2022-08-26T20:16:16.058Z,7.93
2022-08-26T20:19:03.299Z,9.87
2022-08-26T20:21:34.286Z,9.07
2022-08-26T20:24:18.044Z,8.45
2022-08-26T20:26:45.554Z,8.02
2022-08-26T20:29:16.363Z,11.23
2022-08-26T20:31:44.876Z,8.85
2022-08-26T20:34:14.485Z,8.30
2022-08-26T20:36:42.658Z,8.15
2022-08-26T20:39:11.052Z,7.57
2022-08-26T20:41:38.994Z,7.13
2022-08-26T20:44:07.064Z,10.27
2022-08-26T20:46:35.025Z,7.78
2022-08-26T20:49:02.580Z,7.78
2022-08-26T20:51:33.630Z,8.18
2022-08-26T20:54:01.527Z,8.35
2022-08-26T20:56:28.490Z,8.75
2022-08-26T20:58:58.865Z,8.35
2022-08-26T21:01:30.825Z,9.32
2022-08-26T21:03:57.842Z,9.13
2022-08-26T21:06:24.925Z,8.73
2022-08-26T21:08:52.156Z,7.75
2022-08-26T21:11:20.024Z,8.10
2022-08-26T21:14:04.285Z,10.38
2022-08-26T21:16:38.815Z,8.55
2022-08-26T21:19:07.577Z,11.25
2022-08-26T21:21:35.145Z,13.88
2022-08-26T21:24:02.403Z,9.95
2022-08-26T21:26:29.458Z,9.18
2022-08-26T21:28:56.628Z,14.38
2022-08-26T21:31:25.395Z,10.32
2022-08-26T21:33:53.341Z,8.48
2022-08-26T21:36:20.757Z,8.48
2022-08-26T21:38:47.901Z,8.07
2022-08-26T21:41:20.942Z,10.15
2022-08-26T21:43:50.235Z,9.13
2022-08-26T21:46:23.654Z,10.40
2022-08-26T21:49:02.751Z,8.35
2022-08-26T21:51:32.792Z,8.25
2022-08-26T21:54:01.515Z,11.18
2022-08-26T21:56:31.734Z,13.27
2022-08-26T21:58:59.724Z,9.23
2022-08-26T22:01:32.066Z,10.60
2022-08-26T22:03:59.194Z,10.93
2022-08-26T22:06:27.664Z,9.55
2022-08-26T22:08:56.044Z,12.10
2022-08-26T22:11:24.106Z,8.65
2022-08-26T22:13:51.517Z,7.57
2022-08-26T22:16:19.475Z,8.88
2022-08-26T22:18:46.482Z,9.57
2022-08-26T22:21:24.820Z,7.72
2022-08-26T22:23:56.167Z,8.25
2022-08-26T22:26:29.676Z,8.07
2022-08-26T22:28:59.511Z,9.85
2022-08-26T22:31:37.564Z,10.07
2022-08-26T22:34:12.336Z,10.20
2022-08-26T22:36:43.586Z,6.97
2022-08-26T22:39:13.088Z,8.30
2022-08-26T22:41:40.936Z,8.20
2022-08-26T22:44:08.006Z,8.23
2022-08-26T22:46:36.889Z,8.27
2022-08-26T22:49:07.148Z,7.15
2022-08-26T22:51:34.754Z,7.13
2022-08-26T22:54:01.718Z,8.05
2022-08-26T22:56:28.831Z,8.40
2022-08-26T22:58:55.750Z,10.10
2022-08-26T23:01:22.789Z,7.57
2022-08-26T23:03:50.082Z,7.70
2022-08-26T23:06:17.192Z,7.90
2022-08-26T23:08:46.419Z,9.13
2022-08-26T23:11:14.470Z,8.05
2022-08-26T23:13:41.548Z,7.65
2022-08-26T23:16:11.207Z,8.95
2022-08-26T23:18:39.470Z,10.43
2022-08-26T23:21:07.911Z,8.05
2022-08-26T23:23:35.480Z,8.05
2022-08-26T23:26:05.998Z,7.55
2022-08-26T23:28:34.886Z,12.15
2022-08-26T23:31:01.905Z,10.55
2022-08-26T23:33:49.130Z,11.00
2022-08-26T23:36:17.871Z,8.65
2022-08-26T23:38:52.590Z,10.25
2022-08-26T23:41:22.477Z,8.48
2022-08-26T23:43:50.134Z,7.53
2022-08-26T23:46:18.302Z,7.55
2022-08-26T23:48:45.378Z,7.63
2022-08-26T23:51:30.973Z,11.38
2022-08-26T23:53:58.130Z,7.55
2022-08-26T23:56:25.420Z,7.63
2022-08-26T23:58:54.094Z,7.00
